Time;durP1;ratioP1;P1;durP2;ratioP2;P2;SDS_P1;SDS_P2;PMS_P1;PMS_P2;Temp;Humidity;BMP_temperature;BMP_pressure;BME280_temperature;BME280_humidity;BME280_pressure;Samples;Min_cycle;Max_cycle;Signal;HPM_P1;HPM_P2
2022/12/13 00:02:24;;;;;;;23.00;19.50;;;;;;;-1.08;70.46;99748.04;108257;1280;21948;-77
2022/12/13 00:04:53;;;;;;;27.10;20.10;;;;;;;-1.09;70.44;99748.20;108066;1285;21937;-79
2022/12/13 00:07:22;;;;;;;18.20;16.10;;;;;;;-1.08;70.55;99747.70;108065;1285;21957;-78
2022/12/13 00:09:51;;;;;;;15.70;14.00;;;;;;;-1.08;70.49;99751.98;108232;1277;21915;-78
2022/12/13 00:12:19;;;;;;;15.90;14.20;;;;;;;-1.08;70.52;99753.16;108073;1285;22191;-78
2022/12/13 00:14:48;;;;;;;16.30;13.80;;;;;;;-1.08;70.45;99751.46;108076;1285;22322;-78
2022/12/13 00:17:17;;;;;;;16.40;14.80;;;;;;;-1.07;70.42;99751.30;108052;1286;23057;-80
2022/12/13 00:19:47;;;;;;;15.90;14.40;;;;;;;-1.07;70.38;99754.70;108110;1283;21958;-78
2022/12/13 00:22:16;;;;;;;16.00;14.20;;;;;;;-1.08;70.33;99761.20;108135;1281;24272;-78
2022/12/13 00:24:44;;;;;;;17.20;14.40;;;;;;;-1.08;70.32;99760.34;108290;1280;23636;-77
2022/12/13 00:27:13;;;;;;;16.60;14.80;;;;;;;-1.08;70.28;99767.85;108451;1280;23808;-77
2022/12/13 00:29:42;;;;;;;17.80;16.00;;;;;;;-1.08;70.26;99770.24;108291;1282;23181;-77
2022/12/13 00:32:11;;;;;;;17.40;15.10;;;;;;;-1.07;70.27;99777.25;108341;1282;24578;-78
2022/12/13 00:34:40;;;;;;;15.70;14.10;;;;;;;-1.07;70.17;99776.73;108435;1280;21915;-77
2022/12/13 00:37:09;;;;;;;14.90;13.00;;;;;;;-1.08;70.08;99776.23;108449;1279;22715;-77
2022/12/13 00:39:37;;;;;;;12.20;11.00;;;;;;;-1.08;70.09;99775.54;108478;1280;21977;-77
2022/12/13 00:42:06;;;;;;;12.60;11.30;;;;;;;-1.06;70.06;99775.19;108425;1280;21935;-76
2022/12/13 00:44:35;;;;;;;12.30;11.20;;;;;;;-1.07;70.02;99777.24;108246;1280;22269;-77
2022/12/13 00:47:04;;;;;;;13.30;11.80;;;;;;;-1.08;70.00;99774.86;108240;1282;21942;-77
2022/12/13 00:49:32;;;;;;;15.60;12.10;;;;;;;-1.08;70.00;99782.02;108319;1281;22043;-76
2022/12/13 00:52:01;;;;;;;13.50;12.10;;;;;;;-1.08;69.93;99784.08;108278;1280;22114;-77
2022/12/13 00:54:30;;;;;;;11.70;10.50;;;;;;;-1.07;69.94;99783.39;108176;1280;23487;-77
2022/12/13 00:56:59;;;;;;;13.30;11.80;;;;;;;-1.07;69.92;99783.73;108415;1280;21949;-77
2022/12/13 00:59:28;;;;;;;12.20;11.00;;;;;;;-1.07;69.78;99783.73;108118;1283;22043;-77
2022/12/13 01:01:56;;;;;;;12.60;10.70;;;;;;;-1.09;69.66;99784.25;108337;1280;23772;-77
2022/12/13 01:04:26;;;;;;;14.70;11.30;;;;;;;-1.10;69.63;99785.27;108324;1278;24163;-78
2022/12/13 01:06:54;;;;;;;12.60;11.30;;;;;;;-1.10;69.61;99786.64;108191;1281;23611;-79
2022/12/13 01:09:28;;;;;;;12.10;10.80;;;;;;;-1.10;69.63;99785.61;108296;1282;21948;-78
2022/12/13 01:12:04;;;;;;;11.40;10.30;;;;;;;-1.08;69.56;99785.95;108279;1281;22158;-76
2022/12/13 01:14:39;;;;;;;11.40;10.30;;;;;;;-1.08;69.53;99787.84;108206;1280;23062;-78
2022/12/13 01:17:08;;;;;;;10.20;8.90;;;;;;;-1.08;69.46;99788.01;108231;1281;23116;-78
2022/12/13 01:19:37;;;;;;;10.60;9.50;;;;;;;-1.09;69.41;99786.80;108271;1279;23027;-79
2022/12/13 01:22:07;;;;;;;9.90;8.90;;;;;;;-1.00;69.78;99784.59;108422;1279;21926;-77
2022/12/13 01:24:37;;;;;;;10.70;9.70;;;;;;;-0.99;69.24;99788.17;108219;1283;22112;-78
2022/12/13 01:27:06;;;;;;;10.10;9.20;;;;;;;-1.03;69.07;99790.91;108284;1282;23068;-77
2022/12/13 01:29:35;;;;;;;10.10;9.10;;;;;;;-1.05;69.03;99787.66;108326;1280;22092;-78
2022/12/13 01:32:04;;;;;;;10.20;9.10;;;;;;;-1.09;68.92;99790.23;108400;1280;21941;-79
2022/12/13 01:34:33;;;;;;;12.70;9.70;;;;;;;-1.13;68.87;99785.77;108290;1280;22707;-77
2022/12/13 01:37:01;;;;;;;10.90;9.40;;;;;;;-1.16;68.80;99789.88;108306;1280;21947;-78
2022/12/13 01:39:30;;;;;;;11.60;9.40;;;;;;;-1.19;68.78;99787.30;108119;1280;23024;-76
2022/12/13 01:42:05;;;;;;;10.60;9.20;;;;;;;-1.19;68.78;99787.64;108304;1278;21938;-77
2022/12/13 01:45:21;;;;;;;11.30;10.00;;;;;;;-1.18;68.83;99790.21;107835;1286;23685;-80
2022/12/13 01:47:57;;;;;;;10.90;9.80;;;;;;;-1.19;68.83;99792.09;107892;1286;22257;-78
2022/12/13 01:50:43;;;;;;;10.70;9.60;;;;;;;-1.21;68.65;99791.58;108144;1285;22770;-76
2022/12/13 01:53:18;;;;;;;12.30;11.10;;;;;;;-1.22;68.72;99792.27;108063;1285;23734;-77
2022/12/13 01:55:59;;;;;;;11.40;10.30;;;;;;;-1.23;68.56;99798.05;107831;1286;22011;-76
2022/12/13 01:58:29;;;;;;;14.30;11.80;;;;;;;-1.22;68.63;99800.96;108016;1286;21936;-76
2022/12/13 02:00:59;;;;;;;13.90;12.40;;;;;;;-1.19;68.66;99799.95;107903;1286;23107;-77
2022/12/13 02:03:28;;;;;;;15.10;13.60;;;;;;;-1.16;68.67;99803.70;108043;1280;24380;-78
2022/12/13 02:06:06;;;;;;;12.60;11.40;;;;;;;-1.14;68.67;99806.95;108180;1280;24299;-77
2022/12/13 02:08:37;;;;;;;14.20;12.70;;;;;;;-1.16;68.58;99807.80;108315;1280;21943;-78
2022/12/13 02:11:07;;;;;;;12.80;11.60;;;;;;;-1.17;68.59;99812.41;108476;1280;22019;-77
2022/12/13 02:13:39;;;;;;;13.00;11.60;;;;;;;-1.20;68.56;99817.19;108195;1281;23062;-77
2022/12/13 02:16:17;;;;;;;11.70;10.60;;;;;;;-1.22;68.54;99817.86;108105;1280;23627;-76
2022/12/13 02:19:26;;;;;;;10.40;9.20;;;;;;;-1.25;68.40;99820.09;108315;1280;21952;-77
2022/12/13 02:22:29;;;;;;;11.00;9.30;;;;;;;-1.28;68.49;99818.20;108292;1278;22985;-77
2022/12/13 02:25:39;;;;;;;11.90;10.70;;;;;;;-1.31;68.53;99815.98;108466;1280;21956;-78
2022/12/13 02:28:43;;;;;;;9.60;8.60;;;;;;;-1.34;68.56;99815.12;108472;1279;21973;-77
2022/12/13 02:31:22;;;;;;;15.30;13.00;;;;;;;-1.41;68.38;99815.29;108366;1280;21934;-77
2022/12/13 02:34:04;;;;;;;13.50;12.10;;;;;;;-1.43;68.41;99810.83;108248;1279;23787;-78
2022/12/13 02:37:00;;;;;;;11.00;9.30;;;;;;;-1.48;68.36;99806.71;108408;1280;21934;-78
2022/12/13 02:39:47;;;;;;;11.20;10.10;;;;;;;-1.53;68.42;99807.90;108440;1279;21957;-76
2022/12/13 02:42:52;;;;;;;11.70;9.80;;;;;;;-1.56;68.47;99806.36;108361;1277;21938;-77
2022/12/13 02:45:44;;;;;;;9.60;8.70;;;;;;;-1.61;68.33;99806.52;108479;1278;23000;-77
2022/12/13 02:48:18;;;;;;;9.20;8.30;;;;;;;-1.62;68.45;99811.46;108487;1275;23718;-77
2022/12/13 02:50:48;;;;;;;10.50;9.30;;;;;;;-1.63;68.40;99807.19;108231;1283;24192;-77
2022/12/13 02:53:23;;;;;;;11.60;10.40;;;;;;;-1.67;68.28;99805.64;108484;1277;21933;-77
2022/12/13 02:55:51;;;;;;;10.60;9.40;;;;;;;-1.71;68.26;99806.48;108447;1280;21945;-78
2022/12/13 02:58:33;;;;;;;11.50;10.40;;;;;;;-1.78;68.04;99801.35;107803;1286;21940;-78
2022/12/13 03:01:26;;;;;;;15.30;12.50;;;;;;;-1.87;68.03;99803.87;107748;1284;21931;-76
2022/12/13 03:04:23;;;;;;;14.60;13.10;;;;;;;-1.95;68.14;99806.06;107972;1285;23637;-78
2022/12/13 03:07:27;;;;;;;9.50;8.60;;;;;;;-2.04;68.09;99813.86;108038;1286;22149;-78
2022/12/13 03:10:08;;;;;;;8.90;8.00;;;;;;;-2.09;68.31;99816.23;107954;1286;21941;-78
2022/12/13 03:15:41;;;;;;;9.40;8.40;;;;;;;-2.08;68.43;99818.10;108044;1286;23711;-78
2022/12/13 03:18:19;;;;;;;9.50;8.60;;;;;;;-2.07;68.51;99819.98;108474;1280;21952;-79
2022/12/13 03:21:02;;;;;;;9.20;8.30;;;;;;;-2.03;68.60;99818.97;108301;1275;21952;-77
2022/12/13 03:23:32;;;;;;;9.30;8.50;;;;;;;-1.98;68.55;99822.91;108225;1280;21960;-78
2022/12/13 03:26:10;;;;;;;10.40;8.30;;;;;;;-1.97;68.44;99824.64;108155;1282;23112;-81
2022/12/13 03:28:40;;;;;;;9.10;8.20;;;;;;;-1.97;68.45;99828.73;108305;1280;21914;-79
2022/12/13 03:31:09;;;;;;;8.60;7.80;;;;;;;-1.92;68.46;99831.14;108195;1280;22129;-78
2022/12/13 03:33:37;;;;;;;8.70;7.80;;;;;;;-1.90;68.29;99830.11;108330;1280;23795;-78
2022/12/13 03:36:09;;;;;;;9.20;8.10;;;;;;;-1.88;68.26;99826.39;108391;1276;24405;-79
2022/12/13 03:38:39;;;;;;;11.60;7.90;;;;;;;-1.84;68.25;99824.36;108335;1280;23581;-77
2022/12/13 03:41:15;;;;;;;10.30;8.40;;;;;;;-1.82;68.16;99825.39;108410;1280;21964;-77
2022/12/13 03:43:44;;;;;;;10.10;9.10;;;;;;;-1.80;68.12;99824.19;108209;1281;21959;-79
2022/12/13 03:46:13;;;;;;;8.60;7.70;;;;;;;-1.79;68.04;99822.83;108292;1281;21918;-77
2022/12/13 03:48:41;;;;;;;9.30;8.40;;;;;;;-1.80;67.87;99817.54;108267;1280;21945;-77
2022/12/13 03:51:10;;;;;;;7.50;6.80;;;;;;;-1.82;67.79;99816.33;108297;1280;23064;-77
2022/12/13 03:53:39;;;;;;;8.90;8.00;;;;;;;-1.84;67.83;99820.42;108211;1280;22075;-76
2022/12/13 03:56:08;;;;;;;15.40;13.10;;;;;;;-1.86;67.76;99815.48;108426;1280;21934;-78
2022/12/13 03:58:37;;;;;;;13.30;9.00;;;;;;;-1.89;67.83;99817.16;108145;1283;24041;-76
2022/12/13 04:01:09;;;;;;;9.40;8.50;;;;;;;-1.90;67.75;99818.52;108395;1278;23015;-77
2022/12/13 04:03:41;;;;;;;8.80;7.70;;;;;;;-1.92;67.68;99816.64;108296;1280;21920;-76
2022/12/13 04:06:11;;;;;;;9.90;8.90;;;;;;;-1.94;67.64;99818.85;108456;1278;21936;-76
2022/12/13 04:08:51;;;;;;;13.90;11.70;;;;;;;-1.93;67.77;99818.85;108188;1282;22004;-76
2022/12/13 04:14:10;;;;;;;14.10;10.80;;;;;;;-1.85;67.73;99824.52;108285;1279;21950;-77
2022/12/13 04:16:39;;;;;;;15.40;10.60;;;;;;;-1.82;67.68;99825.05;108400;1280;23622;-78
2022/12/13 04:19:08;;;;;;;8.30;7.50;;;;;;;-1.82;67.54;99826.07;108259;1278;23701;-78
2022/12/13 04:21:36;;;;;;;8.90;8.00;;;;;;;-1.80;67.58;99828.11;108379;1280;21945;-76
2022/12/13 04:24:05;;;;;;;9.10;7.90;;;;;;;-1.76;67.60;99827.27;108441;1278;21950;-76
2022/12/13 04:26:34;;;;;;;8.40;7.60;;;;;;;-1.77;67.37;99825.91;108397;1267;21944;-78
2022/12/13 04:29:03;;;;;;;9.20;8.30;;;;;;;-1.80;67.32;99831.02;108230;1274;25047;-77
2022/12/13 04:31:31;;;;;;;8.10;7.00;;;;;;;-1.78;67.49;99830.17;108488;1279;21935;-77
2022/12/13 04:34:00;;;;;;;10.10;8.90;;;;;;;-1.78;67.43;99830.86;108202;1283;23705;-77
2022/12/13 04:36:30;;;;;;;8.60;7.00;;;;;;;-1.78;67.38;99832.23;108315;1280;22723;-76
2022/12/13 04:39:02;;;;;;;8.20;7.40;;;;;;;-1.85;67.14;99833.55;108363;1280;21942;-77
2022/12/13 04:41:38;;;;;;;8.20;6.70;;;;;;;-1.92;67.02;99832.34;108575;1279;22778;-77
2022/12/13 04:44:09;;;;;;;7.10;6.40;;;;;;;-1.98;67.11;99832.81;108414;1282;23074;-78
2022/12/13 04:46:57;;;;;;;6.60;5.90;;;;;;;-2.05;67.04;99838.58;108354;1280;21932;-77
2022/12/13 04:49:30;;;;;;;8.90;6.90;;;;;;;-2.09;67.03;99839.23;108475;1280;21950;-78
2022/12/13 04:52:01;;;;;;;7.10;6.40;;;;;;;-2.10;67.13;99842.98;108505;1280;23135;-80
2022/12/13 04:54:31;;;;;;;8.10;7.20;;;;;;;-2.08;67.24;99846.41;108231;1280;21930;-77
2022/12/13 04:57:10;;;;;;;7.70;7.00;;;;;;;-2.05;67.28;99848.98;108362;1281;21984;-78
2022/12/13 04:59:39;;;;;;;8.70;6.40;;;;;;;-2.05;67.10;99848.46;108472;1280;22804;-77
2022/12/13 05:02:09;;;;;;;7.70;6.90;;;;;;;-2.04;67.15;99852.05;108164;1279;21946;-76
2022/12/13 05:04:38;;;;;;;8.00;7.20;;;;;;;-2.02;67.10;99851.89;108252;1280;21976;-77
2022/12/13 05:07:07;;;;;;;7.30;6.60;;;;;;;-2.01;66.94;99855.64;108469;1273;23080;-77
2022/12/13 05:09:36;;;;;;;6.90;6.20;;;;;;;-2.01;66.90;99860.77;108236;1280;23051;-77
2022/12/13 05:12:05;;;;;;;7.10;6.40;;;;;;;-2.02;66.88;99861.79;108379;1280;22205;-77
2022/12/13 05:14:52;;;;;;;8.50;7.70;;;;;;;-2.00;66.97;99864.19;108314;1266;22406;-76
2022/12/13 05:17:21;;;;;;;6.80;6.20;;;;;;;-1.97;66.88;99860.79;108457;1280;22484;-75
2022/12/13 05:19:50;;;;;;;8.10;6.30;;;;;;;-1.98;66.70;99861.46;108473;1278;23730;-78
2022/12/13 05:22:19;;;;;;;7.20;6.50;;;;;;;-2.00;66.71;99861.28;108179;1280;23105;-77
2022/12/13 05:24:49;;;;;;;6.50;5.90;;;;;;;-2.02;66.61;99860.59;108469;1280;23057;-77
2022/12/13 05:27:18;;;;;;;8.60;6.90;;;;;;;-2.01;66.59;99864.35;108272;1281;24350;-77
2022/12/13 05:29:56;;;;;;;7.40;6.50;;;;;;;-2.02;66.46;99864.52;108221;1280;21972;-77
2022/12/13 05:32:37;;;;;;;8.70;7.80;;;;;;;-2.01;66.41;99861.45;108241;1279;21959;-77
2022/12/13 05:35:14;;;;;;;8.70;7.80;;;;;;;-1.99;66.35;99861.12;108154;1279;21949;-76
2022/12/13 05:37:51;;;;;;;10.50;8.20;;;;;;;-1.98;66.28;99858.73;108332;1280;24062;-77
2022/12/13 05:40:25;;;;;;;8.70;7.80;;;;;;;-1.99;66.21;99859.07;108404;1278;23774;-77
2022/12/13 05:42:54;;;;;;;11.80;9.20;;;;;;;-2.00;66.01;99856.85;108422;1280;24109;-77
2022/12/13 05:45:31;;;;;;;10.70;7.90;;;;;;;-2.03;65.81;99854.95;108201;1280;23030;-77
2022/12/13 05:48:00;;;;;;;7.90;7.10;;;;;;;-2.07;65.78;99854.25;108392;1279;22371;-76
2022/12/13 05:50:30;;;;;;;7.10;6.40;;;;;;;-2.11;65.72;99855.25;108324;1272;22157;-78
2022/12/13 05:52:59;;;;;;;7.40;6.70;;;;;;;-2.11;65.81;99852.17;108344;1280;23589;-77
2022/12/13 05:55:28;;;;;;;8.70;7.90;;;;;;;-2.12;65.76;99848.94;108319;1280;21914;-77
2022/12/13 05:57:58;;;;;;;7.40;6.70;;;;;;;-2.15;65.66;99846.54;108329;1279;21945;-76
2022/12/13 06:00:30;;;;;;;11.00;9.90;;;;;;;-2.19;65.51;99841.23;108436;1279;21923;-76
2022/12/13 06:03:00;;;;;;;10.90;9.80;;;;;;;-2.22;65.54;99842.58;108263;1280;23701;-76
2022/12/13 06:05:30;;;;;;;9.60;8.40;;;;;;;-2.19;65.66;99843.27;108273;1280;21936;-77
2022/12/13 06:07:59;;;;;;;9.80;8.80;;;;;;;-2.15;65.64;99843.81;108335;1280;22192;-77
2022/12/13 06:10:28;;;;;;;9.20;8.20;;;;;;;-2.11;65.55;99846.73;108371;1279;22002;-77
2022/12/13 06:13:04;;;;;;;12.10;9.50;;;;;;;-2.08;65.46;99849.65;108334;1281;21945;-79
2022/12/13 06:15:59;;;;;;;13.40;9.80;;;;;;;-2.06;65.50;99851.70;108443;1278;23722;-77
2022/12/13 06:18:32;;;;;;;16.40;11.50;;;;;;;-2.04;65.35;99851.54;108366;1280;22702;-76
2022/12/13 06:21:05;;;;;;;16.90;10.30;;;;;;;-2.04;65.27;99850.86;108506;1279;21931;-77
2022/12/13 06:23:35;;;;;;;14.50;10.70;;;;;;;-2.05;65.24;99852.73;108344;1280;22820;-79
2022/12/13 06:26:06;;;;;;;15.30;10.10;;;;;;;-2.04;65.17;99852.90;108218;1280;21958;-77
2022/12/13 06:28:35;;;;;;;10.40;9.00;;;;;;;-2.05;65.11;99851.02;108244;1280;21952;-77
2022/12/13 06:31:04;;;;;;;10.20;8.80;;;;;;;-2.06;65.12;99848.64;108438;1279;23633;-78
2022/12/13 06:33:35;;;;;;;11.40;9.70;;;;;;;-2.07;65.00;99848.63;108287;1279;21981;-76
2022/12/13 06:36:05;;;;;;;13.40;10.80;;;;;;;-2.06;65.01;99849.48;108302;1279;21964;-76
2022/12/13 06:38:33;;;;;;;10.90;9.70;;;;;;;-2.03;65.11;99852.39;108320;1273;22901;-77
2022/12/13 06:41:15;;;;;;;15.50;12.20;;;;;;;-2.00;64.95;99848.49;108399;1280;21959;-77
2022/12/13 06:43:46;;;;;;;17.60;11.40;;;;;;;-1.99;64.93;99847.65;108183;1280;21931;-77
2022/12/13 06:46:15;;;;;;;19.60;13.60;;;;;;;-1.96;64.96;99849.02;108346;1280;22277;-77
2022/12/13 06:48:44;;;;;;;17.40;15.20;;;;;;;-1.92;64.90;99848.88;108182;1280;23151;-76
2022/12/13 06:51:13;;;;;;;16.90;12.80;;;;;;;-1.90;64.88;99846.66;108459;1278;23593;-76
2022/12/13 06:53:52;;;;;;;16.20;13.50;;;;;;;-1.91;64.82;99844.61;108469;1279;22401;-76
2022/12/13 06:56:21;;;;;;;14.20;12.10;;;;;;;-1.91;64.83;99850.92;108477;1278;21941;-77
2022/12/13 06:58:50;;;;;;;16.10;12.80;;;;;;;-1.90;64.80;99860.65;108378;1280;24988;-76
2022/12/13 07:01:20;;;;;;;15.50;12.50;;;;;;;-1.90;64.69;99861.33;108457;1277;23085;-77
2022/12/13 07:03:56;;;;;;;15.80;12.60;;;;;;;-1.90;64.58;99864.91;108345;1280;22355;-77
2022/12/13 07:06:25;;;;;;;16.80;13.20;;;;;;;-1.93;64.62;99865.74;108379;1280;23153;-77
2022/12/13 07:08:57;;;;;;;21.50;15.60;;;;;;;-1.94;64.57;99869.50;108465;1277;21942;-78
2022/12/13 07:11:28;;;;;;;17.20;13.80;;;;;;;-1.91;64.63;99869.86;108489;1280;23625;-77
2022/12/13 07:13:58;;;;;;;20.30;15.80;;;;;;;-1.90;64.55;99871.56;108255;1280;21934;-77
2022/12/13 07:16:28;;;;;;;27.20;18.10;;;;;;;-1.89;64.57;99870.04;108444;1280;24316;-78
2022/12/13 07:18:59;;;;;;;25.10;16.10;;;;;;;-1.88;64.66;99874.81;108158;1280;24294;-77
2022/12/13 07:21:30;;;;;;;16.50;12.50;;;;;;;-1.86;64.62;99873.80;108247;1280;21957;-76
2022/12/13 07:24:00;;;;;;;16.70;14.10;;;;;;;-1.84;64.58;99875.70;108417;1279;21944;-76
2022/12/13 07:26:29;;;;;;;22.90;18.50;;;;;;;-1.82;64.54;99880.14;108156;1281;21952;-77
2022/12/13 07:28:57;;;;;;;23.20;18.10;;;;;;;-1.80;64.49;99882.71;108329;1280;21945;-78
2022/12/13 07:31:26;;;;;;;22.40;18.50;;;;;;;-1.78;64.44;99884.92;108394;1279;22822;-77
2022/12/13 07:33:55;;;;;;;20.80;16.60;;;;;;;-1.77;64.53;99884.60;108199;1280;21971;-76
2022/12/13 07:36:24;;;;;;;26.50;16.30;;;;;;;-1.76;64.47;99885.45;108423;1280;24307;-77
2022/12/13 07:38:56;;;;;;;19.70;16.30;;;;;;;-1.74;64.40;99886.48;108286;1280;21968;-78
2022/12/13 07:41:25;;;;;;;20.90;14.90;;;;;;;-1.71;64.46;99886.16;108379;1280;21956;-77
2022/12/13 07:43:55;;;;;;;20.10;17.40;;;;;;;-1.68;64.37;99888.56;108176;1279;23020;-78
2022/12/13 07:46:24;;;;;;;33.20;25.60;;;;;;;-1.67;64.29;99893.34;108505;1278;23695;-77
2022/12/13 07:49:02;;;;;;;23.60;19.70;;;;;;;-1.63;64.35;99894.73;108219;1280;21947;-77
2022/12/13 07:51:34;;;;;;;25.30;20.30;;;;;;;-1.60;64.32;99895.77;108421;1279;23614;-75
2022/12/13 07:54:03;;;;;;;28.00;18.30;;;;;;;-1.56;64.41;99899.20;108355;1279;21989;-77
2022/12/13 07:56:35;;;;;;;26.40;18.30;;;;;;;-1.53;64.47;99900.58;108332;1280;23173;-77
2022/12/13 07:59:04;;;;;;;30.40;20.40;;;;;;;-1.52;64.45;99898.53;108180;1281;21972;-80
2022/12/13 08:01:33;;;;;;;29.90;21.90;;;;;;;-1.51;64.36;99901.44;108169;1280;22400;-78
2022/12/13 08:04:03;;;;;;;34.90;24.50;;;;;;;-1.51;64.20;99905.52;108190;1280;23691;-77
2022/12/13 08:06:37;;;;;;;34.60;25.80;;;;;;;-1.50;64.29;99907.23;108206;1279;22998;-77
2022/12/13 08:09:06;;;;;;;24.00;18.90;;;;;;;-1.50;64.24;99905.52;108312;1280;22724;-78
2022/12/13 08:11:35;;;;;;;28.30;22.00;;;;;;;-1.51;64.24;99908.94;108302;1279;21944;-77
2022/12/13 08:14:04;;;;;;;35.30;28.50;;;;;;;-1.47;64.31;99914.77;108165;1280;21996;-77
2022/12/13 08:16:32;;;;;;;30.60;24.90;;;;;;;-1.39;64.45;99922.30;108275;1281;22008;-77
2022/12/13 08:19:01;;;;;;;29.30;22.60;;;;;;;-1.32;64.50;99917.73;108149;1280;21939;-76
2022/12/13 08:21:40;;;;;;;24.30;20.60;;;;;;;-1.25;64.37;99920.64;108454;1280;21960;-76
2022/12/13 08:24:30;;;;;;;29.90;25.40;;;;;;;-1.20;64.41;99922.55;108343;1280;21950;-76
2022/12/13 08:27:01;;;;;;;27.30;20.40;;;;;;;-1.17;64.20;99919.14;108160;1280;23062;-76
2022/12/13 08:29:33;;;;;;;19.70;17.50;;;;;;;-1.18;64.16;99923.23;108277;1280;23036;-76
2022/12/13 08:32:08;;;;;;;33.70;23.50;;;;;;;-1.17;64.17;99923.05;108253;1280;21953;-76
2022/12/13 08:34:38;;;;;;;27.70;20.70;;;;;;;-1.18;64.10;99924.59;107277;1280;1257915;-77
2022/12/13 08:37:07;;;;;;;22.50;18.90;;;;;;;-1.20;64.15;99921.34;108411;1280;21970;-77
2022/12/13 08:39:38;;;;;;;32.00;25.20;;;;;;;-1.16;64.24;99924.77;108305;1280;23048;-76
2022/12/13 08:42:13;;;;;;;24.30;19.00;;;;;;;-1.16;64.08;99927.50;108422;1280;21958;-76
2022/12/13 08:44:51;;;;;;;24.90;20.50;;;;;;;-1.17;64.11;99930.75;108336;1280;21931;-76
2022/12/13 08:47:24;;;;;;;24.80;20.90;;;;;;;-1.13;64.15;99931.10;108364;1280;24081;-76
2022/12/13 08:49:58;;;;;;;26.20;22.00;;;;;;;-1.09;64.21;99932.31;108277;1280;23743;-77
2022/12/13 08:52:34;;;;;;;51.20;38.50;;;;;;;-1.04;64.23;99931.98;108335;1280;21940;-77
2022/12/13 08:55:11;;;;;;;37.50;29.90;;;;;;;-0.96;64.28;99933.54;108311;1277;21951;-77
2022/12/13 08:57:42;;;;;;;29.00;24.00;;;;;;;-0.86;64.34;99941.25;108343;1280;22075;-75
2022/12/13 09:00:18;;;;;;;27.30;22.20;;;;;;;-0.81;64.22;99934.42;108384;1280;22082;-75
2022/12/13 09:02:47;;;;;;;35.90;29.20;;;;;;;-0.84;63.97;99936.64;108302;1280;23589;-76
2022/12/13 09:05:16;;;;;;;28.80;25.60;;;;;;;-0.85;64.11;99938.35;108074;1280;21932;-76
2022/12/13 09:08:03;;;;;;;37.90;33.90;;;;;;;-0.84;64.18;99942.95;108223;1280;23688;-75
2022/12/13 09:11:00;;;;;;;38.30;26.70;;;;;;;-0.82;64.39;99941.09;108353;1280;21963;-76
2022/12/13 09:13:49;;;;;;;43.30;33.60;;;;;;;-0.77;64.49;99940.75;108239;1280;22029;-77
2022/12/13 09:16:22;;;;;;;45.50;33.70;;;;;;;-0.72;64.47;99941.27;108195;1280;21936;-76
2022/12/13 09:18:52;;;;;;;29.10;23.00;;;;;;;-0.70;64.31;99943.84;108259;1280;22331;-76
2022/12/13 09:21:25;;;;;;;38.00;24.90;;;;;;;-0.72;64.26;99945.21;108366;1278;21945;-76
2022/12/13 09:24:00;;;;;;;30.20;24.50;;;;;;;-0.72;64.34;99947.08;108223;1280;21948;-77
2022/12/13 09:26:30;;;;;;;30.50;24.20;;;;;;;-0.71;64.50;99948.11;108264;1279;21941;-77
2022/12/13 09:29:07;;;;;;;33.80;26.90;;;;;;;-0.71;64.50;99946.91;108364;1279;21950;-84
2022/12/13 09:31:39;;;;;;;40.50;28.50;;;;;;;-0.70;64.58;99945.89;108188;1280;21948;-77
2022/12/13 09:34:10;;;;;;;33.10;28.00;;;;;;;-0.66;64.80;99943.67;108431;1280;23629;-76
2022/12/13 09:36:39;;;;;;;33.90;28.50;;;;;;;-0.65;64.70;99942.14;108544;1266;23758;-77
2022/12/13 09:39:10;;;;;;;27.80;23.10;;;;;;;-0.59;64.92;99942.83;108294;1280;23100;-77
2022/12/13 09:41:55;;;;;;;28.70;24.90;;;;;;;-0.55;64.87;99944.02;108276;1280;23062;-76
2022/12/13 09:44:38;;;;;;;24.80;21.00;;;;;;;-0.55;64.75;99947.45;108386;1275;21955;-77
2022/12/13 09:47:41;;;;;;;22.10;19.60;;;;;;;-0.58;64.82;99952.91;108337;1280;21938;-77
2022/12/13 09:50:34;;;;;;;26.20;20.50;;;;;;;-0.54;65.11;99950.52;108234;1280;21984;-76
2022/12/13 09:53:07;;;;;;;25.30;21.10;;;;;;;-0.51;64.83;99950.02;108202;1279;21939;-75
2022/12/13 09:55:51;;;;;;;31.30;22.50;;;;;;;-0.48;64.73;99951.56;108272;1282;23732;-77
2022/12/13 09:58:26;;;;;;;26.10;21.10;;;;;;;-0.47;64.51;99952.58;108239;1282;22014;-77
2022/12/13 10:00:57;;;;;;;27.10;21.30;;;;;;;-0.43;64.56;99950.02;108235;1280;22415;-76
2022/12/13 10:03:27;;;;;;;25.90;21.00;;;;;;;-0.37;64.56;99950.36;108164;1281;22412;-80
2022/12/13 10:06:30;;;;;;;23.00;20.30;;;;;;;-0.27;64.63;99947.81;108250;1280;21957;-79
2022/12/13 10:09:00;;;;;;;29.10;20.30;;;;;;;-0.23;64.20;99946.95;108522;1280;21950;-77
2022/12/13 10:11:28;;;;;;;26.20;22.60;;;;;;;-0.24;64.01;99948.31;108207;1283;22815;-76
2022/12/13 10:14:39;;;;;;;24.40;21.20;;;;;;;-0.25;64.13;99951.91;108352;1280;23007;-77
2022/12/13 10:17:15;;;;;;;29.80;24.10;;;;;;;-0.29;63.94;99948.48;108556;1280;21959;-78
2022/12/13 10:19:50;;;;;;;33.40;26.50;;;;;;;-0.37;63.71;99952.93;108476;1280;23528;-78
2022/12/13 10:22:23;;;;;;;38.40;30.20;;;;;;;-0.47;63.52;99951.90;108394;1280;21938;-79
2022/12/13 10:24:55;;;;;;;36.90;30.20;;;;;;;-0.57;63.49;99949.84;108354;1280;21949;-78
2022/12/13 10:27:42;;;;;;;35.40;26.40;;;;;;;-0.66;63.53;99948.27;108321;1280;21945;-79
2022/12/13 10:30:24;;;;;;;42.20;35.20;;;;;;;-0.77;63.60;99949.64;108386;1272;23042;-77
2022/12/13 10:33:03;;;;;;;43.80;31.70;;;;;;;-0.75;64.27;99947.92;108361;1276;21962;-79
2022/12/13 10:35:39;;;;;;;31.20;24.90;;;;;;;-0.63;64.51;99940.77;108394;1280;21935;-79
2022/12/13 10:38:15;;;;;;;33.20;27.40;;;;;;;-0.54;64.63;99939.59;108194;1278;23617;-77
2022/12/13 10:40:45;;;;;;;29.70;24.60;;;;;;;-0.46;64.59;99939.25;108473;1278;21975;-75
2022/12/13 10:43:17;;;;;;;26.30;22.40;;;;;;;-0.46;64.25;99942.33;108215;1280;23628;-76
2022/12/13 10:45:57;;;;;;;32.90;26.80;;;;;;;-0.54;63.92;99942.15;108144;1278;21941;-78
2022/12/13 10:48:39;;;;;;;34.40;24.40;;;;;;;-0.66;63.81;99939.40;108494;1280;21949;-77
2022/12/13 10:51:20;;;;;;;36.90;27.50;;;;;;;-0.69;64.06;99940.77;108501;1271;22818;-79
2022/12/13 10:53:55;;;;;;;43.40;31.00;;;;;;;-0.62;64.11;99940.09;108075;1280;22446;-77
2022/12/13 10:56:47;;;;;;;43.40;29.70;;;;;;;-0.39;64.20;99944.55;108207;1280;23569;-78
2022/12/13 10:59:48;;;;;;;39.40;31.00;;;;;;;0.05;65.11;99940.77;108335;1280;23053;-79
2022/12/13 11:02:36;;;;;;;30.50;25.40;;;;;;;1.19;69.87;99936.51;107696;1286;21949;-78
2022/12/13 11:05:23;;;;;;;30.00;23.60;;;;;;;2.47;69.37;99935.59;107791;1286;21955;-77
2022/12/13 11:07:54;;;;;;;23.80;21.30;;;;;;;3.28;66.99;99940.24;107971;1285;21961;-79
2022/12/13 11:10:29;;;;;;;26.60;23.60;;;;;;;3.47;62.63;99937.05;107779;1286;22343;-77
2022/12/13 11:13:03;;;;;;;26.20;22.60;;;;;;;3.41;60.39;99935.95;107762;1285;21955;-77
2022/12/13 11:15:37;;;;;;;25.20;20.40;;;;;;;3.32;59.33;99939.16;107813;1275;22278;-77
2022/12/13 11:18:22;;;;;;;24.60;19.10;;;;;;;3.02;57.92;99939.06;107292;1285;23637;-78
2022/12/13 11:20:59;;;;;;;22.50;19.30;;;;;;;2.47;57.04;99941.27;107707;1289;21948;-77
2022/12/13 11:23:36;;;;;;;24.10;20.30;;;;;;;2.09;57.49;99938.77;107780;1289;22201;-77
2022/12/13 11:26:16;;;;;;;22.20;19.50;;;;;;;1.94;57.71;99936.67;107784;1288;22201;-79
2022/12/13 11:29:20;;;;;;;25.00;20.10;;;;;;;1.75;57.35;99935.64;107634;1289;21961;-77
2022/12/13 11:32:44;;;;;;;25.90;23.10;;;;;;;1.50;57.52;99931.89;107752;1284;24444;-77
2022/12/13 11:35:24;;;;;;;28.80;23.00;;;;;;;1.30;57.91;99935.45;107618;1287;22549;-78
2022/12/13 11:38:30;;;;;;;33.60;23.50;;;;;;;1.23;58.05;99936.02;107788;1286;23113;-78
2022/12/13 11:41:43;;;;;;;36.50;28.20;;;;;;;1.06;57.77;99935.43;108471;1280;21939;-77
2022/12/13 11:44:22;;;;;;;28.20;21.30;;;;;;;0.80;57.77;99931.30;107894;1289;22117;-75
2022/12/13 11:46:58;;;;;;;27.20;21.60;;;;;;;0.65;58.19;99928.61;107646;1288;21951;-77
2022/12/13 11:49:44;;;;;;;25.90;21.40;;;;;;;0.55;58.37;99936.01;107974;1286;21947;-76
2022/12/13 11:52:28;;;;;;;25.10;20.90;;;;;;;0.46;58.57;99937.42;107716;1286;21931;-77
2022/12/13 11:55:17;;;;;;;27.10;21.40;;;;;;;0.31;58.61;99938.48;107938;1281;22170;-77
2022/12/13 11:57:59;;;;;;;31.60;26.10;;;;;;;0.18;58.85;99941.43;108053;1286;21841;-77